Time;durP1;ratioP1;P1;durP2;ratioP2;P2;SDS_P1;SDS_P2;PMS_P1;PMS_P2;Temp;Humidity;BMP_temperature;BMP_pressure;BME280_temperature;BME280_humidity;BME280_pressure;Samples;Min_cycle;Max_cycle;Signal;HPM_P1;HPM_P2
2023/03/02 00:00:24;;;;;;;13.88;6.75;;;7.60;97.90;;;;;;10397374;28;20010;-65
2023/03/02 00:05:27;;;;;;;13.60;6.32;;;7.60;97.90;;;;;;10395360;28;20064;-64
2023/03/02 00:10:28;;;;;;;12.20;6.15;;;7.60;97.90;;;;;;10393050;28;20042;-66
2023/03/02 00:15:29;;;;;;;16.02;7.32;;;7.60;97.90;;;;;;10394639;28;20021;-64
2023/03/02 00:20:30;;;;;;;11.05;5.90;;;7.50;97.90;;;;;;10394223;28;20021;-65
2023/03/02 00:25:30;;;;;;;13.75;6.40;;;7.50;97.90;;;;;;10390854;28;20029;-65
2023/03/02 00:30:31;;;;;;;13.65;6.65;;;7.50;97.90;;;;;;10398956;28;20022;-65
2023/03/02 00:35:37;;;;;;;13.80;6.55;;;7.50;97.90;;;;;;10396269;28;20025;-65
2023/03/02 00:40:42;;;;;;;14.35;6.68;;;7.50;97.90;;;;;;10387918;28;20382;-65
2023/03/02 00:45:43;;;;;;;13.35;6.35;;;7.50;98.00;;;;;;10383485;28;20025;-64
2023/03/02 00:50:43;;;;;;;12.30;6.47;;;7.50;98.00;;;;;;10396991;28;20386;-65
2023/03/02 00:55:55;;;;;;;12.07;6.32;;;7.50;98.00;;;;;;10398389;28;20025;-65
2023/03/02 01:00:56;;;;;;;11.55;6.03;;;7.50;98.00;;;;;;10393327;28;20030;-64
2023/03/02 01:05:57;;;;;;;11.85;6.38;;;7.50;98.00;;;;;;10397069;28;20432;-65
2023/03/02 01:11:00;;;;;;;11.93;6.00;;;7.50;98.00;;;;;;10400229;28;20053;-64
2023/03/02 01:16:01;;;;;;;13.02;6.25;;;7.50;98.00;;;;;;10403023;28;20136;-64
2023/03/02 01:21:13;;;;;;;13.02;6.43;;;7.40;98.00;;;;;;10396739;28;20021;-65
2023/03/02 01:26:13;;;;;;;13.60;6.50;;;7.40;98.00;;;;;;10399345;28;20029;-65
2023/03/02 01:31:14;;;;;;;12.23;6.47;;;7.40;98.00;;;;;;10392433;28;20323;-65
2023/03/02 01:36:15;;;;;;;13.07;6.97;;;7.40;98.00;;;;;;10397452;28;20026;-65
2023/03/02 01:41:16;;;;;;;12.52;6.70;;;7.40;98.00;;;;;;10409495;28;20021;-65
2023/03/02 01:46:27;;;;;;;13.73;6.78;;;7.40;98.20;;;;;;10416902;28;20064;-64
2023/03/02 01:51:32;;;;;;;13.77;6.53;;;7.40;98.00;;;;;;10379564;28;20026;-66
2023/03/02 01:56:37;;;;;;;12.57;6.38;;;7.40;98.00;;;;;;10402842;28;20104;-65
2023/03/02 02:01:43;;;;;;;11.73;5.90;;;7.40;98.00;;;;;;10402903;28;20064;-65
2023/03/02 02:06:49;;;;;;;12.52;5.72;;;7.40;98.00;;;;;;10404097;28;20113;-65
2023/03/02 02:11:50;;;;;;;12.20;6.38;;;7.40;98.00;;;;;;10409568;28;20020;-65
2023/03/02 02:16:51;;;;;;;12.23;6.20;;;7.40;98.00;;;;;;10405470;28;20522;-65
2023/03/02 02:21:52;;;;;;;14.38;7.32;;;7.30;98.00;;;;;;10397821;28;20041;-65
2023/03/02 02:26:55;;;;;;;13.50;6.60;;;7.30;98.00;;;;;;10391416;28;20021;-65
2023/03/02 02:32:02;;;;;;;15.10;7.03;;;7.30;98.00;;;;;;10413209;28;20072;-65
2023/03/02 02:37:35;;;;;;;14.27;6.30;;;7.30;98.00;;;;;;10406137;28;20061;-66
2023/03/02 02:42:40;;;;;;;12.25;6.00;;;7.30;98.00;;;;;;10400425;28;20496;-64
2023/03/02 02:47:42;;;;;;;12.32;6.10;;;7.30;98.00;;;;;;10410445;28;20055;-65
2023/03/02 02:52:46;;;;;;;15.32;6.70;;;7.30;98.00;;;;;;10409566;28;20108;-64
2023/03/02 02:57:49;;;;;;;12.00;6.15;;;7.30;98.00;;;;;;10405062;28;20030;-64
2023/03/02 03:03:02;;;;;;;14.38;6.93;;;7.30;98.10;;;;;;10386301;28;20022;-64
2023/03/02 03:08:09;;;;;;;14.07;6.55;;;7.20;98.30;;;;;;10392024;28;20033;-65
2023/03/02 03:13:11;;;;;;;14.80;6.95;;;7.20;98.00;;;;;;10387584;28;20283;-65
2023/03/02 03:18:12;;;;;;;12.60;6.95;;;7.20;98.00;;;;;;10400503;28;20021;-65
2023/03/02 03:23:12;;;;;;;15.18;6.90;;;8.50;98.40;;;;;;10404968;28;20157;-65
2023/03/02 03:28:13;;;;;;;16.55;7.18;;;7.20;98.00;;;;;;10408429;28;20022;-65
2023/03/02 03:33:13;;;;;;;15.68;6.63;;;7.20;98.00;;;;;;10409554;28;20064;-67
2023/03/02 03:38:15;;;;;;;13.63;6.40;;;7.20;98.00;;;;;;10403705;28;20729;-66
2023/03/02 03:43:16;;;;;;;13.02;6.22;;;7.20;98.00;;;;;;10387720;28;20021;-66
2023/03/02 03:48:17;;;;;;;12.73;6.05;;;7.20;98.00;;;;;;10407449;28;20029;-66
2023/03/02 03:53:17;;;;;;;12.73;6.53;;;7.20;98.10;;;;;;10404732;28;20345;-66
2023/03/02 03:58:19;;;;;;;13.20;6.13;;;7.20;98.10;;;;;;10417509;28;20370;-66
2023/03/02 04:03:20;;;;;;;13.73;6.55;;;7.20;98.10;;;;;;10405815;28;20520;-66
2023/03/02 04:08:21;;;;;;;14.90;6.75;;;7.10;98.10;;;;;;10406431;28;20103;-67
2023/03/02 04:13:21;;;;;;;13.98;7.18;;;7.10;98.10;;;;;;10406596;28;20128;-66
2023/03/02 04:18:22;;;;;;;18.10;7.80;;;7.10;98.10;;;;;;10411408;28;20017;-67
2023/03/02 04:23:22;;;;;;;15.82;6.90;;;7.10;98.10;;;;;;10407546;28;20384;-66
2023/03/02 04:28:23;;;;;;;11.98;6.07;;;7.10;98.10;;;;;;10410697;28;20021;-66
2023/03/02 04:33:23;;;;;;;14.45;6.90;;;7.10;98.10;;;;;;10401891;28;20029;-66
2023/03/02 04:38:28;;;;;;;14.48;6.80;;;7.10;98.10;;;;;;10388529;28;20036;-66
2023/03/02 04:43:28;;;;;;;13.82;6.70;;;7.10;98.10;;;;;;10407016;28;20672;-66
2023/03/02 04:48:29;;;;;;;17.23;7.38;;;7.10;98.10;;;;;;10421555;28;20005;-66
2023/03/02 04:53:30;;;;;;;14.43;6.28;;;7.10;98.10;;;;;;10407538;28;20503;-66
2023/03/02 04:58:30;;;;;;;12.70;6.30;;;7.10;98.10;;;;;;10415722;28;20474;-66
2023/03/02 05:03:31;;;;;;;17.33;7.63;;;7.00;98.10;;;;;;10415177;28;20021;-66
2023/03/02 05:08:32;;;;;;;14.88;6.85;;;7.00;98.10;;;;;;10423375;28;20017;-66
2023/03/02 05:13:34;;;;;;;11.40;5.80;;;7.00;98.10;;;;;;10417693;28;20035;-66
2023/03/02 05:18:34;;;;;;;13.35;6.57;;;7.00;98.10;;;;;;10411800;28;20108;-66
2023/03/02 05:23:35;;;;;;;14.07;6.43;;;7.00;98.10;;;;;;10407534;28;20033;-66
2023/03/02 05:28:36;;;;;;;11.95;6.40;;;7.00;98.10;;;;;;10420541;28;20627;-66
2023/03/02 05:33:36;;;;;;;13.82;6.50;;;7.00;98.10;;;;;;10394560;28;20037;-66
2023/03/02 05:38:37;;;;;;;12.35;6.05;;;7.00;98.10;;;;;;10413298;28;20021;-66
2023/03/02 05:43:38;;;;;;;11.23;5.68;;;7.00;98.10;;;;;;10405544;28;20083;-66
2023/03/02 05:48:41;;;;;;;13.68;6.38;;;7.00;98.20;;;;;;10415351;28;20050;-66
2023/03/02 05:53:41;;;;;;;15.63;6.63;;;6.90;98.10;;;;;;10408574;28;20032;-66
2023/03/02 05:58:42;;;;;;;12.23;5.88;;;6.90;98.10;;;;;;10419558;28;20017;-66
2023/03/02 06:03:42;;;;;;;12.77;6.15;;;6.90;98.10;;;;;;10403933;28;20025;-66
2023/03/02 06:08:43;;;;;;;14.77;6.93;;;6.90;98.10;;;;;;10412330;28;20013;-66
2023/03/02 06:13:43;;;;;;;11.52;5.30;;;6.90;98.10;;;;;;10405529;28;20487;-66
2023/03/02 06:18:44;;;;;;;13.18;6.00;;;6.90;98.10;;;;;;10411770;28;20049;-66
2023/03/02 06:23:45;;;;;;;12.70;5.90;;;6.90;98.10;;;;;;10407073;28;20088;-66
2023/03/02 06:28:45;;;;;;;12.05;5.82;;;6.90;98.10;;;;;;10412198;28;20461;-65
2023/03/02 06:33:46;;;;;;;13.02;5.68;;;6.90;98.10;;;;;;10402774;28;20028;-66
2023/03/02 06:38:46;;;;;;;11.13;5.43;;;6.90;98.10;;;;;;10412613;28;20028;-66
2023/03/02 06:43:47;;;;;;;13.60;6.22;;;6.90;98.10;;;;;;10393438;28;20389;-66
2023/03/02 06:48:48;;;;;;;12.88;6.00;;;6.90;98.10;;;;;;10414022;28;20472;-66
2023/03/02 06:53:48;;;;;;;14.02;6.60;;;6.90;98.10;;;;;;10391722;28;20021;-66
2023/03/02 06:58:49;;;;;;;13.68;6.10;;;6.80;98.10;;;;;;10408428;28;20021;-66
2023/03/02 07:03:49;;;;;;;12.57;5.78;;;6.80;98.10;;;;;;10387647;28;20017;-66
2023/03/02 07:08:50;;;;;;;10.57;5.18;;;6.80;98.10;;;;;;10402384;28;20404;-66
2023/03/02 07:13:50;;;;;;;13.48;6.43;;;6.80;98.10;;;;;;10406180;28;20021;-66
2023/03/02 07:18:51;;;;;;;11.95;5.90;;;6.80;98.20;;;;;;10414829;28;20208;-66
2023/03/02 07:23:52;;;;;;;13.13;6.20;;;6.80;98.10;;;;;;10404698;28;20464;-66
2023/03/02 07:28:52;;;;;;;14.48;5.80;;;6.80;98.10;;;;;;10407741;28;20104;-66
2023/03/02 07:33:53;;;;;;;13.70;5.90;;;6.80;98.10;;;;;;10414031;28;20033;-66
2023/03/02 07:38:54;;;;;;;11.05;5.38;;;6.80;98.10;;;;;;10409292;28;20025;-66
2023/03/02 07:43:54;;;;;;;12.65;5.85;;;6.80;98.10;;;;;;10411539;28;20515;-66
2023/03/02 07:48:55;;;;;;;14.18;6.00;;;6.80;98.10;;;;;;10394804;28;20049;-65
2023/03/02 07:53:56;;;;;;;11.40;5.70;;;6.80;98.10;;;;;;10394233;28;20068;-66
2023/03/02 07:58:56;;;;;;;13.05;5.93;;;6.80;98.10;;;;;;10393546;28;20022;-65
2023/03/02 08:03:57;;;;;;;11.95;5.57;;;6.80;98.10;;;;;;10405964;28;20033;-66
2023/03/02 08:08:59;;;;;;;12.82;5.93;;;6.80;98.10;;;;;;10395517;28;20018;-66
2023/03/02 08:14:00;;;;;;;12.88;5.80;;;6.80;98.10;;;;;;10385454;28;20021;-66
2023/03/02 08:19:01;;;;;;;12.50;5.10;;;6.80;98.10;;;;;;10391330;28;20030;-66
2023/03/02 08:24:02;;;;;;;12.35;5.72;;;6.80;98.10;;;;;;10399652;28;20033;-66
2023/03/02 08:29:03;;;;;;;13.27;6.00;;;6.80;98.30;;;;;;10398253;28;20504;-66
2023/03/02 08:34:04;;;;;;;17.02;5.65;;;6.90;98.10;;;;;;10376301;28;20041;-66
2023/03/02 08:39:05;;;;;;;13.20;6.10;;;6.90;98.00;;;;;;10404266;28;20277;-66
2023/03/02 08:44:06;;;;;;;12.77;6.10;;;6.90;98.00;;;;;;10395859;28;20033;-65
2023/03/02 08:49:06;;;;;;;12.93;5.95;;;6.90;98.00;;;;;;10404154;28;20137;-66
2023/03/02 08:54:09;;;;;;;14.27;5.90;;;6.90;98.00;;;;;;10386097;28;20041;-66
2023/03/02 08:59:12;;;;;;;13.98;6.15;;;6.90;98.00;;;;;;10412092;28;20524;-66
2023/03/02 09:04:12;;;;;;;16.02;6.78;;;6.90;98.00;;;;;;10396357;28;20025;-66
2023/03/02 09:09:14;;;;;;;12.60;5.50;;;6.90;98.20;;;;;;10392289;28;20041;-66
2023/03/02 09:14:14;;;;;;;15.07;6.15;;;6.90;98.00;;;;;;10413900;28;20021;-67
2023/03/02 09:19:15;;;;;;;14.00;6.03;;;6.90;98.00;;;;;;10388269;28;20041;-65
2023/03/02 09:24:16;;;;;;;14.48;5.90;;;6.90;97.90;;;;;;10382581;28;20037;-65
2023/03/02 09:29:16;;;;;;;14.23;6.32;;;7.00;97.90;;;;;;10404671;28;20026;-67
2023/03/02 09:34:17;;;;;;;13.70;5.93;;;7.00;97.90;;;;;;10404302;28;20034;-67
2023/03/02 09:39:18;;;;;;;14.30;6.57;;;7.00;97.90;;;;;;10400259;28;20079;-67
2023/03/02 09:44:40;;;;;;;14.57;6.85;;;7.10;97.90;;;;;;10405306;28;20086;-66
2023/03/02 09:50:04;;;;;;;14.73;6.75;;;7.10;97.80;;;;;;10392666;28;20036;-66
2023/03/02 09:55:21;;;;;;;15.45;6.47;;;7.20;98.20;;;;;;10403476;28;20412;-66
2023/03/02 10:00:30;;;;;;;15.33;7.27;;;7.20;97.80;;;;;;10388218;28;20038;-66
2023/03/02 10:05:39;;;;;;;16.65;6.72;;;7.20;97.80;;;;;;10408090;28;20126;-66
2023/03/02 10:10:56;;;;;;;15.85;6.80;;;7.20;97.80;;;;;;10389186;28;20040;-65
2023/03/02 10:16:17;;;;;;;17.35;7.47;;;7.20;97.80;;;;;;10399579;28;20032;-65
2023/03/02 10:21:31;;;;;;;14.27;6.97;;;7.30;97.80;;;;;;10390624;28;20021;-66
2023/03/02 10:26:43;;;;;;;16.63;7.07;;;7.30;97.80;;;;;;10388190;28;20064;-66
2023/03/02 10:31:45;;;;;;;22.77;9.02;;;7.30;97.70;;;;;;10386364;28;20149;-67
2023/03/02 10:36:46;;;;;;;20.75;9.57;;;7.10;97.50;;;;;;10382536;28;20039;-66
2023/03/02 10:41:52;;;;;;;24.33;10.27;;;6.30;98.20;;;;;;10397219;28;20047;-66
2023/03/02 10:46:52;;;;;;;24.30;10.55;;;5.50;99.20;;;;;;10402910;28;20448;-66
2023/03/02 10:52:02;;;;;;;34.58;11.27;;;5.30;99.60;;;;;;10402371;28;20090;-67
2023/03/02 10:57:24;;;;;;;22.05;10.38;;;5.10;99.80;;;;;;10388656;28;20509;-65
2023/03/02 11:02:27;;;;;;;24.40;10.18;;;5.00;99.90;;;;;;10402641;28;20056;-65
2023/03/02 11:07:28;;;;;;;24.02;10.32;;;5.20;99.90;;;;;;10407850;28;20100;-65
2023/03/02 11:12:30;;;;;;;22.98;10.27;;;5.60;99.90;;;;;;10402219;28;20034;-65
2023/03/02 11:17:35;;;;;;;23.48;9.32;;;6.00;99.50;;;;;;10405987;28;20120;-66
2023/03/02 11:22:46;;;;;;;25.38;9.40;;;6.30;99.20;;;;;;10400935;28;20029;-65
2023/03/02 11:27:53;;;;;;;24.55;9.82;;;6.50;99.00;;;;;;10415927;28;20427;-65
2023/03/02 11:33:06;;;;;;;23.27;9.38;;;6.70;98.70;;;;;;10400010;28;20041;-66
2023/03/02 11:38:20;;;;;;;20.85;9.10;;;6.80;99.00;;;;;;10397747;28;20022;-65
2023/03/02 11:43:20;;;;;;;20.80;8.45;;;7.10;98.90;;;;;;10388436;28;20064;-66
2023/03/02 11:48:33;;;;;;;19.27;8.57;;;7.20;98.60;;;;;;10400917;28;20105;-66
2023/03/02 11:53:40;;;;;;;21.90;8.68;;;7.30;98.70;;;;;;10402882;28;20117;-66
2023/03/02 11:58:42;;;;;;;17.63;8.18;;;7.50;98.70;;;;;;10402350;28;20023;-66
2023/03/02 12:03:46;;;;;;;16.48;6.82;;;7.60;98.60;;;;;;10404535;28;20123;-66
2023/03/02 12:08:49;;;;;;;26.95;8.98;;;7.70;98.60;;;;;;10398259;28;20073;-66
2023/03/02 12:14:22;;;;;;;18.77;8.60;;;7.80;98.70;;;;;;10386098;28;20048;-66
2023/03/02 12:19:27;;;;;;;16.77;7.85;;;7.90;99.20;;;;;;10388364;28;20025;-66
2023/03/02 12:24:30;;;;;;;17.38;6.97;;;8.00;98.80;;;;;;10404060;28;20040;-67
2023/03/02 12:29:42;;;;;;;18.60;7.63;;;8.00;98.80;;;;;;10403015;28;20021;-66
2023/03/02 12:34:58;;;;;;;15.50;7.03;;;8.10;99.00;;;;;;10400566;28;20064;-66
2023/03/02 12:40:29;;;;;;;14.77;6.40;;;8.20;99.10;;;;;;10402507;28;20029;-66
2023/03/02 12:46:07;;;;;;;15.18;6.32;;;8.30;99.20;;;;;;10388794;28;20025;-66
2023/03/02 12:51:17;;;;;;;14.57;6.25;;;8.30;99.20;;;;;;10406507;28;20025;-66
2023/03/02 12:56:25;;;;;;;15.95;6.60;;;8.40;99.00;;;;;;10402685;28;20108;-66
2023/03/02 13:01:28;;;;;;;14.88;6.88;;;8.40;99.00;;;;;;10395837;28;20029;-66
2023/03/02 13:06:31;;;;;;;15.65;6.65;;;8.50;98.90;;;;;;10402721;28;20152;-66
2023/03/02 13:11:33;;;;;;;13.13;5.90;;;8.50;98.90;;;;;;10404671;28;20021;-66
2023/03/02 13:16:35;;;;;;;13.20;5.60;;;8.60;99.00;;;;;;10410985;28;20025;-66
2023/03/02 13:21:38;;;;;;;15.35;6.57;;;8.60;99.00;;;;;;10402748;28;20072;-66
2023/03/02 13:26:39;;;;;;;14.90;6.63;;;8.60;99.00;;;;;;10418089;28;20543;-66
2023/03/02 13:31:39;;;;;;;15.77;6.30;;;8.70;99.10;;;;;;10406565;28;20705;-67
2023/03/02 13:36:40;;;;;;;16.30;6.45;;;8.70;99.10;;;;;;10398171;28;20108;-66
2023/03/02 13:41:57;;;;;;;12.80;5.60;;;8.70;99.00;;;;;;10409678;28;20033;-66
2023/03/02 13:46:59;;;;;;;15.07;5.10;;;8.80;99.20;;;;;;10405033;28;20017;-66
2023/03/02 13:52:22;;;;;;;12.52;6.25;;;8.80;99.10;;;;;;10403929;28;20459;-66
2023/03/02 13:57:30;;;;;;;13.10;6.10;;;8.90;99.30;;;;;;10404806;28;20086;-66
2023/03/02 14:02:30;;;;;;;12.77;5.70;;;8.90;99.20;;;;;;10409750;28;20033;-66
2023/03/02 14:07:31;;;;;;;12.38;5.65;;;9.00;99.20;;;;;;10407041;28;20022;-66
2023/03/02 14:12:32;;;;;;;12.48;5.68;;;9.00;99.10;;;;;;10399368;28;20078;-66
2023/03/02 14:17:34;;;;;;;13.95;6.22;;;9.10;99.10;;;;;;10415816;28;20373;-66
2023/03/02 14:22:35;;;;;;;10.50;5.10;;;9.10;99.10;;;;;;10407961;28;20101;-66
2023/03/02 14:27:36;;;;;;;15.23;6.15;;;9.20;99.10;;;;;;10411131;28;20094;-66
2023/03/02 14:32:36;;;;;;;15.00;7.28;;;9.30;99.00;;;;;;10403411;28;20136;-66
2023/03/02 14:37:44;;;;;;;16.02;7.10;;;9.40;99.00;;;;;;10406325;28;20473;-66
2023/03/02 14:42:45;;;;;;;13.75;6.93;;;9.50;98.90;;;;;;10397393;28;20396;-67
2023/03/02 14:47:45;;;;;;;15.45;6.80;;;9.50;98.80;;;;;;10385393;28;20032;-66
2023/03/02 14:52:53;;;;;;;14.07;6.53;;;9.60;98.80;;;;;;10392475;28;20148;-66
2023/03/02 14:58:11;;;;;;;17.67;6.60;;;9.60;98.80;;;;;;10397404;28;20121;-66
2023/03/02 15:03:24;;;;;;;16.05;7.40;;;9.70;98.80;;;;;;10399398;28;20460;-66
2023/03/02 15:08:24;;;;;;;12.50;5.93;;;9.80;98.70;;;;;;10401182;28;20022;-66
2023/03/02 15:13:25;;;;;;;13.68;6.60;;;9.90;98.70;;;;;;10401036;28;20384;-66
2023/03/02 15:18:26;;;;;;;11.32;6.40;;;10.00;98.60;;;;;;10397279;28;20017;-66
2023/03/02 15:23:26;;;;;;;15.93;6.45;;;10.00;98.60;;;;;;10397831;28;20377;-66
2023/03/02 15:28:27;;;;;;;10.25;5.63;;;10.10;98.50;;;;;;10400849;28;20237;-66
2023/03/02 15:33:28;;;;;;;13.70;6.47;;;10.20;98.50;;;;;;10398434;28;20120;-64
2023/03/02 15:38:30;;;;;;;14.13;5.93;;;10.10;98.80;;;;;;10399424;28;20056;-65
2023/03/02 15:43:31;;;;;;;12.07;5.53;;;10.10;98.70;;;;;;10401393;28;20485;-65
2023/03/02 15:48:32;;;;;;;12.55;5.60;;;10.00;98.80;;;;;;10396178;28;20026;-63
2023/03/02 15:53:34;;;;;;;13.32;6.00;;;9.90;98.90;;;;;;10409206;28;20029;-65
2023/03/02 15:58:35;;;;;;;12.10;5.35;;;9.90;99.10;;;;;;10402954;28;20168;-64
2023/03/02 16:03:37;;;;;;;14.90;5.75;;;9.80;99.30;;;;;;10390826;28;20466;-65
2023/03/02 16:08:37;;;;;;;11.38;5.60;;;9.80;99.40;;;;;;10402199;28;20101;-64
2023/03/02 16:13:38;;;;;;;12.48;6.07;;;9.80;99.60;;;;;;10405934;28;20389;-65
2023/03/02 16:18:38;;;;;;;10.82;4.95;;;9.00;98.90;;;;;;10407664;28;20021;-65
2023/03/02 16:23:39;;;;;;;14.35;5.13;;;8.10;99.30;;;;;;10402857;28;20025;-63
2023/03/02 16:28:40;;;;;;;12.65;5.07;;;7.90;99.80;;;;;;10398551;28;20024;-64
2023/03/02 16:33:41;;;;;;;14.82;4.90;;;8.10;99.70;;;;;;10394902;28;20029;-63
2023/03/02 16:38:41;;;;;;;10.82;4.95;;;8.30;99.70;;;;;;10396653;28;20029;-65
2023/03/02 16:43:53;;;;;;;15.13;5.75;;;8.20;99.00;;;;;;10405751;28;20082;-63
2023/03/02 16:48:55;;;;;;;11.75;5.32;;;7.90;99.30;;;;;;10406966;28;20033;-64
2023/03/02 16:53:56;;;;;;;13.10;5.53;;;8.00;99.40;;;;;;10415103;28;20071;-61
2023/03/02 16:58:57;;;;;;;13.95;5.05;;;8.20;99.50;;;;;;10415064;28;20033;-63
2023/03/02 17:03:58;;;;;;;11.77;5.22;;;8.40;99.40;;;;;;10386851;28;20022;-63
2023/03/02 17:08:59;;;;;;;10.50;4.25;;;8.50;99.40;;;;;;10388371;28;20045;-64
2023/03/02 17:13:59;;;;;;;11.07;4.82;;;8.60;99.50;;;;;;10410449;28;20416;-63
2023/03/02 17:19:00;;;;;;;10.73;5.28;;;8.70;99.50;;;;;;10413472;28;20029;-63
2023/03/02 17:24:01;;;;;;;12.95;4.80;;;8.70;99.50;;;;;;10405433;28;20411;-63
2023/03/02 17:29:02;;;;;;;10.25;4.45;;;8.80;99.50;;;;;;10409347;28;20032;-63
2023/03/02 17:34:02;;;;;;;11.75;5.15;;;8.80;99.50;;;;;;10417089;28;20420;-64
2023/03/02 17:39:03;;;;;;;11.05;5.57;;;8.80;99.50;;;;;;10408416;28;20649;-63
2023/03/02 17:44:05;;;;;;;10.60;4.82;;;8.80;99.40;;;;;;10403124;28;20029;-66
2023/03/02 17:49:05;;;;;;;11.27;4.88;;;8.80;99.80;;;;;;10404122;28;20125;-64
2023/03/02 17:54:06;;;;;;;11.60;5.10;;;8.80;99.60;;;;;;10403154;28;20152;-64
2023/03/02 17:59:06;;;;;;;11.70;5.03;;;8.80;99.70;;;;;;10405885;28;20021;-64
2023/03/02 18:04:07;;;;;;;10.35;4.72;;;8.80;99.70;;;;;;10402935;28;20037;-64
2023/03/02 18:09:08;;;;;;;9.15;4.55;;;8.80;99.70;;;;;;10400798;28;20036;-63
2023/03/02 18:14:14;;;;;;;10.95;4.68;;;8.80;99.80;;;;;;10395813;28;20037;-63
2023/03/02 18:19:15;;;;;;;11.50;4.55;;;8.80;99.80;;;;;;10402842;28;20597;-65
2023/03/02 18:24:16;;;;;;;9.25;4.80;;;8.80;99.80;;;;;;10405371;28;20039;-63
2023/03/02 18:29:16;;;;;;;10.98;5.10;;;8.80;99.80;;;;;;10401919;28;20039;-64
2023/03/02 18:34:18;;;;;;;10.25;4.63;;;8.70;99.80;;;;;;10402778;28;20061;-64
2023/03/02 18:39:19;;;;;;;11.68;4.55;;;8.70;99.80;;;;;;10403979;28;20025;-64
2023/03/02 18:44:19;;;;;;;9.73;4.47;;;8.70;99.80;;;;;;10393330;28;20427;-64
2023/03/02 18:49:20;;;;;;;8.93;4.72;;;8.70;99.80;;;;;;10403143;28;20044;-63
2023/03/02 18:54:21;;;;;;;9.05;4.80;;;8.70;99.80;;;;;;10400501;28;20029;-63
2023/03/02 18:59:22;;;;;;;10.07;4.78;;;8.60;99.80;;;;;;10398444;28;20026;-64
2023/03/02 19:04:25;;;;;;;11.88;5.20;;;8.60;99.80;;;;;;10387871;28;20034;-64
2023/03/02 19:09:26;;;;;;;9.05;3.95;;;8.60;99.80;;;;;;10381634;28;20028;-64
2023/03/02 19:14:27;;;;;;;9.30;4.25;;;8.60;99.80;;;;;;10399901;28;20105;-62
2023/03/02 19:19:28;;;;;;;9.18;4.35;;;8.60;99.80;;;;;;10401249;28;20031;-64
2023/03/02 19:24:29;;;;;;;10.15;4.78;;;8.50;99.80;;;;;;10396329;28;20120;-64
2023/03/02 19:29:30;;;;;;;10.57;4.55;;;8.50;99.80;;;;;;10393628;28;20022;-65
2023/03/02 19:34:30;;;;;;;10.75;4.13;;;8.50;99.80;;;;;;10398124;28;20030;-65
2023/03/02 19:39:31;;;;;;;8.15;3.97;;;8.50;99.80;;;;;;10388900;28;20502;-66
2023/03/02 19:44:32;;;;;;;8.70;4.30;;;8.40;99.80;;;;;;10387143;28;20025;-65
2023/03/02 19:49:33;;;;;;;9.02;4.32;;;8.40;99.80;;;;;;10398887;28;20025;-66
2023/03/02 19:54:33;;;;;;;9.23;4.47;;;8.40;99.80;;;;;;10399308;28;20026;-65
2023/03/02 19:59:35;;;;;;;10.85;4.65;;;8.40;99.70;;;;;;10393863;28;20029;-66
2023/03/02 20:04:35;;;;;;;9.63;4.45;;;8.40;99.70;;;;;;10399468;28;20021;-65
2023/03/02 20:09:36;;;;;;;8.60;4.28;;;8.30;99.70;;;;;;10399095;28;20029;-65
2023/03/02 20:14:39;;;;;;;8.25;4.35;;;8.30;99.70;;;;;;10395549;28;20026;-65
2023/03/02 20:19:40;;;;;;;9.30;4.45;;;8.30;99.70;;;;;;10394335;28;20033;-65
2023/03/02 20:24:41;;;;;;;9.18;4.78;;;8.20;99.60;;;;;;10395504;28;20400;-65
2023/03/02 20:29:42;;;;;;;8.20;4.30;;;8.20;99.60;;;;;;10396069;28;20030;-65
2023/03/02 20:34:43;;;;;;;10.23;4.90;;;8.20;99.60;;;;;;10388805;28;20360;-65
2023/03/02 20:39:46;;;;;;;8.77;4.70;;;8.20;99.60;;;;;;10392252;28;20030;-65
2023/03/02 20:44:47;;;;;;;10.23;4.90;;;8.20;99.60;;;;;;10389546;28;20276;-65
2023/03/02 20:49:48;;;;;;;9.65;4.82;;;8.10;99.60;;;;;;10391447;28;20105;-65
2023/03/02 20:54:49;;;;;;;10.88;5.18;;;8.10;99.60;;;;;;10392795;28;20125;-65
2023/03/02 20:59:50;;;;;;;9.32;4.47;;;8.10;99.60;;;;;;10387369;28;20032;-65
2023/03/02 21:04:50;;;;;;;10.77;4.20;;;8.10;99.90;;;;;;10379209;28;20025;-68
2023/03/02 21:09:51;;;;;;;8.70;4.20;;;8.00;99.60;;;;;;10383306;28;20052;-66
2023/03/02 21:14:52;;;;;;;7.35;4.18;;;8.00;99.60;;;;;;10393334;28;20511;-66
2023/03/02 21:19:52;;;;;;;8.57;4.10;;;8.00;99.60;;;;;;10393078;28;20018;-68
2023/03/02 21:24:53;;;;;;;8.88;4.63;;;8.00;99.60;;;;;;10384871;28;20022;-66
2023/03/02 21:29:54;;;;;;;8.98;4.63;;;8.00;99.60;;;;;;10414553;22;20597;-83
2023/03/02 21:34:55;;;;;;;9.20;4.32;;;7.90;99.60;;;;;;10446157;28;20018;-81
2023/03/02 21:39:57;;;;;;;9.13;4.60;;;7.90;99.60;;;;;;10443355;28;20013;-84
2023/03/02 21:44:58;;;;;;;8.63;4.90;;;8.50;99.80;;;;;;10442201;28;20025;-84
2023/03/02 21:49:58;;;;;;;8.80;4.60;;;7.90;99.60;;;;;;10461893;28;20120;-84
2023/03/02 21:54:59;;;;;;;8.68;4.80;;;7.80;99.60;;;;;;10454484;28;20060;-84
2023/03/02 22:00:03;;;;;;;9.98;4.90;;;7.80;99.60;;;;;;10448346;28;20492;-83
2023/03/02 22:05:04;;;;;;;7.43;4.03;;;7.80;99.60;;;;;;10463450;28;20527;-85
2023/03/02 22:10:05;;;;;;;9.23;5.03;;;7.80;99.60;;;;;;10450598;28;20067;-83
2023/03/02 22:15:13;;;;;;;8.55;4.22;;;7.70;99.60;;;;;;10447886;28;20033;-83
2023/03/02 22:20:17;;;;;;;8.48;4.28;;;7.70;99.60;;;;;;10447315;28;20029;-84
2023/03/02 22:25:18;;;;;;;9.55;4.57;;;7.70;99.60;;;;;;10436137;28;20025;-85
2023/03/02 22:30:23;;;;;;;9.10;4.35;;;7.70;99.60;;;;;;10437101;28;20024;-84
2023/03/02 22:35:29;;;;;;;8.25;4.32;;;7.80;99.60;;;;;;10440432;28;20162;-85
2023/03/02 22:40:36;;;;;;;10.70;4.70;;;7.60;99.50;;;;;;10456769;28;20064;-85
2023/03/02 22:46:04;;;;;;;10.45;5.15;;;7.60;99.50;;;;;;10444236;28;20036;-85
2023/03/02 22:51:23;;;;;;;9.10;5.03;;;7.60;99.50;;;;;;10440346;28;20048;-85
2023/03/02 22:56:47;;;;;;;8.45;4.40;;;7.60;99.50;;;;;;10458360;28;20426;-85
2023/03/02 23:02:21;;;;;;;9.38;5.15;;;7.50;99.50;;;;;;10442344;28;20457;-86
2023/03/02 23:07:21;;;;;;;9.80;5.20;;;7.60;99.50;;;;;;10436401;28;20056;-85
2023/03/02 23:12:26;;;;;;;10.90;5.32;;;7.50;99.50;;;;;;10441184;28;20056;-85
2023/03/02 23:17:37;;;;;;;10.10;4.57;;;7.50;99.30;;;;;;10440211;28;20048;-85
2023/03/02 23:22:42;;;;;;;10.55;4.95;;;7.50;99.50;;;;;;10435551;28;20021;-85
2023/03/02 23:27:46;;;;;;;9.77;5.32;;;7.50;99.50;;;;;;10440109;28;20044;-85
2023/03/02 23:32:46;;;;;;;9.40;5.15;;;7.50;99.50;;;;;;10439650;28;20033;-85
2023/03/02 23:37:47;;;;;;;9.20;4.82;;;7.50;99.50;;;;;;10442702;28;20504;-85
2023/03/02 23:43:22;;;;;;;10.52;5.00;;;7.50;99.50;;;;;;10458145;28;20112;-85
2023/03/02 23:48:23;;;;;;;12.25;5.88;;;7.40;99.40;;;;;;10439488;28;20348;-86
2023/03/02 23:53:24;;;;;;;8.30;4.63;;;7.40;99.40;;;;;;10441708;28;20067;-85
2023/03/02 23:58:25;;;;;;;9.70;5.18;;;7.40;99.40;;;;;;10442179;28;20025;-85
